createdAt,value
2019-02-09T00:02:22.171Z,4.40
2019-02-09T00:04:52.307Z,5.00
2019-02-09T00:07:22.452Z,5.22
2019-02-09T00:09:52.657Z,4.93
2019-02-09T00:12:22.910Z,4.72
2019-02-09T00:14:53.145Z,4.90
2019-02-09T00:17:23.365Z,4.92
2019-02-09T00:19:53.578Z,5.07
2019-02-09T00:22:23.809Z,4.30
2019-02-09T00:24:54.147Z,4.80
2019-02-09T00:27:24.525Z,5.10
2019-02-09T00:29:55.034Z,4.63
2019-02-09T00:32:25.287Z,5.17
2019-02-09T00:34:55.596Z,5.20
2019-02-09T00:37:25.971Z,4.77
2019-02-09T00:39:56.209Z,4.83
2019-02-09T00:42:26.463Z,5.10
2019-02-09T00:44:57.327Z,5.23
2019-02-09T00:47:27.576Z,4.97
2019-02-09T00:49:57.922Z,5.43
2019-02-09T00:52:28.167Z,5.30
2019-02-09T00:54:58.537Z,5.40
2019-02-09T00:57:28.770Z,5.37
2019-02-09T00:59:59.214Z,5.57
2019-02-09T01:02:29.430Z,5.67
2019-02-09T01:04:59.659Z,5.40
2019-02-09T01:07:30.015Z,5.13
2019-02-09T01:10:00.469Z,5.70
2019-02-09T01:12:30.707Z,5.10
2019-02-09T01:15:01.019Z,5.75
2019-02-09T01:17:31.370Z,5.53
2019-02-09T01:20:01.595Z,5.70
2019-02-09T01:22:32.068Z,5.47
2019-02-09T01:25:02.209Z,5.17
2019-02-09T01:27:32.743Z,5.63
2019-02-09T01:30:03.124Z,5.77
2019-02-09T01:32:33.485Z,5.37
2019-02-09T01:35:04.139Z,5.80
2019-02-09T01:37:34.602Z,6.23
2019-02-09T01:40:06.896Z,6.23
2019-02-09T01:42:37.274Z,5.57
2019-02-09T01:45:09.842Z,5.53
2019-02-09T01:47:40.306Z,6.07
2019-02-09T01:50:12.923Z,6.50
2019-02-09T01:52:43.245Z,6.27
2019-02-09T01:55:13.814Z,5.87
2019-02-09T01:57:44.377Z,5.60
2019-02-09T02:00:24.013Z,5.67
2019-02-09T02:02:54.505Z,6.30
2019-02-09T02:05:27.158Z,6.28
2019-02-09T02:07:57.710Z,6.30
2019-02-09T02:10:33.981Z,5.87
2019-02-09T02:13:05.704Z,6.43
2019-02-09T02:15:36.262Z,6.43
2019-02-09T02:18:08.268Z,6.97
2019-02-09T02:20:39.099Z,6.47
2019-02-09T02:23:18.619Z,6.23
2019-02-09T02:25:49.062Z,5.63
2019-02-09T02:28:19.602Z,5.73
2019-02-09T02:30:50.152Z,4.57
2019-02-09T02:33:20.674Z,3.22
2019-02-09T02:35:51.145Z,3.47
2019-02-09T02:38:21.704Z,2.95
2019-02-09T02:40:52.223Z,2.90
2019-02-09T02:43:22.688Z,2.62
2019-02-09T02:45:53.260Z,2.57
2019-02-09T02:48:24.002Z,2.80
2019-02-09T02:50:54.374Z,2.37
2019-02-09T02:53:24.866Z,2.30
2019-02-09T02:55:55.328Z,2.10
2019-02-09T02:58:27.795Z,2.13
2019-02-09T03:00:58.083Z,2.33
2019-02-09T03:03:28.649Z,2.20
2019-02-09T03:05:59.276Z,2.00
2019-02-09T03:08:29.654Z,2.47
2019-02-09T03:11:00.062Z,2.20
2019-02-09T03:13:30.526Z,2.40
2019-02-09T03:16:00.786Z,3.00
2019-02-09T03:18:31.368Z,2.80
2019-02-09T03:21:01.755Z,3.10
2019-02-09T03:23:32.285Z,3.07
2019-02-09T03:26:02.874Z,2.73
2019-02-09T03:28:33.326Z,3.37
2019-02-09T03:31:03.564Z,3.17
2019-02-09T03:33:33.884Z,3.47
2019-02-09T03:36:04.285Z,3.83
2019-02-09T03:38:34.556Z,4.03
2019-02-09T03:41:04.888Z,4.00
2019-02-09T03:43:35.050Z,4.33
2019-02-09T03:46:05.800Z,4.03
2019-02-09T03:48:36.145Z,4.63
2019-02-09T03:51:06.759Z,4.50
2019-02-09T03:53:37.166Z,4.50
2019-02-09T03:56:07.430Z,4.75
2019-02-09T03:58:37.677Z,5.03
2019-02-09T04:01:07.917Z,5.33
2019-02-09T04:03:38.170Z,5.53
2019-02-09T04:06:08.480Z,5.93
2019-02-09T04:08:38.742Z,4.50
2019-02-09T04:11:08.808Z,5.03
2019-02-09T04:13:39.097Z,5.03
2019-02-09T04:16:09.328Z,5.50
2019-02-09T04:18:39.674Z,4.43
2019-02-09T04:21:10.011Z,5.30
2019-02-09T04:23:40.215Z,4.90
2019-02-09T04:26:10.568Z,5.57
2019-02-09T04:28:40.865Z,4.63
2019-02-09T04:31:11.103Z,4.83
2019-02-09T04:33:41.324Z,4.27
2019-02-09T04:36:11.694Z,4.15
2019-02-09T04:38:41.979Z,4.20
2019-02-09T04:41:12.136Z,3.50
2019-02-09T04:43:42.366Z,3.80
2019-02-09T04:46:12.722Z,3.90
2019-02-09T04:48:43.027Z,3.50
2019-02-09T04:51:13.287Z,3.77
2019-02-09T04:53:43.490Z,2.93
2019-02-09T04:56:13.912Z,3.20
2019-02-09T04:58:44.071Z,3.17
2019-02-09T05:01:14.565Z,3.27
2019-02-09T05:03:44.841Z,2.77
2019-02-09T05:06:15.085Z,3.00
2019-02-09T05:08:45.330Z,2.50
2019-02-09T05:11:15.508Z,3.30
2019-02-09T05:13:45.782Z,3.20
2019-02-09T05:16:16.030Z,3.10
2019-02-09T05:18:46.201Z,2.43
2019-02-09T05:21:16.589Z,2.50
2019-02-09T05:23:49.165Z,2.87
2019-02-09T05:26:19.428Z,3.75
2019-02-09T05:28:49.491Z,2.70
2019-02-09T05:31:23.090Z,3.85
2019-02-09T05:33:51.803Z,3.13
2019-02-09T05:36:22.046Z,3.20
2019-02-09T05:38:52.549Z,2.63
2019-02-09T05:41:22.883Z,3.30
2019-02-09T05:43:53.300Z,2.77
2019-02-09T05:46:23.899Z,3.37
2019-02-09T05:48:54.445Z,2.97
2019-02-09T05:51:24.783Z,2.98
2019-02-09T05:53:55.277Z,2.77
2019-02-09T05:56:25.959Z,3.30
2019-02-09T05:58:56.542Z,2.27
2019-02-09T06:01:32.230Z,3.03
2019-02-09T06:03:59.219Z,2.33
2019-02-09T06:06:29.659Z,2.73
2019-02-09T06:09:00.189Z,2.93
2019-02-09T06:11:31.823Z,2.67
2019-02-09T06:14:02.305Z,3.20
2019-02-09T06:16:32.821Z,2.40
2019-02-09T06:19:03.217Z,2.80
2019-02-09T06:21:33.578Z,2.50
2019-02-09T06:24:04.036Z,2.40
2019-02-09T06:26:34.517Z,2.80
2019-02-09T06:29:05.056Z,4.03
2019-02-09T06:31:41.042Z,3.37
2019-02-09T06:34:07.745Z,3.03
2019-02-09T06:36:38.190Z,2.77
2019-02-09T06:39:09.911Z,3.00
2019-02-09T06:41:40.464Z,2.57
2019-02-09T06:44:11.094Z,3.20
2019-02-09T06:46:41.595Z,2.87
2019-02-09T06:49:12.034Z,2.70
2019-02-09T06:51:42.587Z,3.67
2019-02-09T06:54:13.294Z,2.83
2019-02-09T06:56:43.828Z,2.90
2019-02-09T06:59:14.389Z,3.30
2019-02-09T07:01:48.754Z,2.87
2019-02-09T07:04:16.760Z,2.80
2019-02-09T07:06:47.469Z,3.00
2019-02-09T07:09:24.627Z,3.17
2019-02-09T07:11:54.886Z,2.87
2019-02-09T07:14:25.095Z,2.73
2019-02-09T07:16:55.691Z,2.73
2019-02-09T07:19:26.160Z,3.27
2019-02-09T07:21:56.442Z,3.20
2019-02-09T07:24:26.827Z,2.80
2019-02-09T07:26:57.058Z,3.00
2019-02-09T07:29:27.372Z,2.73
2019-02-09T07:31:57.592Z,2.40
2019-02-09T07:34:27.823Z,2.80
2019-02-09T07:36:58.069Z,3.67
2019-02-09T07:39:28.308Z,2.80
2019-02-09T07:41:58.576Z,3.27
2019-02-09T07:44:28.764Z,3.30
2019-02-09T07:46:59.020Z,2.92
2019-02-09T07:49:29.251Z,3.50
2019-02-09T07:51:59.395Z,3.43
2019-02-09T07:54:29.650Z,3.17
2019-02-09T07:56:59.893Z,2.70
2019-02-09T07:59:30.219Z,2.97
2019-02-09T08:02:04.729Z,2.87
2019-02-09T08:04:32.277Z,3.33
2019-02-09T08:07:02.619Z,3.53
2019-02-09T08:09:32.964Z,4.30
2019-02-09T08:12:03.293Z,3.53
2019-02-09T08:14:33.637Z,2.97
2019-02-09T08:17:04.070Z,2.43
2019-02-09T08:19:35.235Z,2.77
2019-02-09T08:22:05.869Z,2.80
2019-02-09T08:24:36.095Z,3.53
2019-02-09T08:27:06.987Z,3.87
2019-02-09T08:29:37.173Z,3.40
2019-02-09T08:32:12.547Z,3.33
2019-02-09T08:34:39.530Z,3.20
2019-02-09T08:37:09.824Z,3.40
2019-02-09T08:39:40.260Z,3.77
2019-02-09T08:42:10.539Z,3.30
2019-02-09T08:44:40.765Z,2.60
2019-02-09T08:47:11.189Z,2.63
2019-02-09T08:49:41.791Z,3.37
2019-02-09T08:52:12.114Z,3.47
2019-02-09T08:54:42.540Z,3.17
2019-02-09T08:57:15.175Z,3.60
2019-02-09T08:59:45.605Z,3.60
2019-02-09T09:02:20.545Z,3.87
2019-02-09T09:04:47.894Z,3.50
2019-02-09T09:07:19.801Z,3.20
2019-02-09T09:09:50.102Z,3.80
2019-02-09T09:12:20.264Z,2.42
2019-02-09T09:14:50.525Z,3.50
2019-02-09T09:17:20.860Z,3.80
2019-02-09T09:19:51.205Z,3.30
2019-02-09T09:22:21.570Z,4.00
2019-02-09T09:24:51.908Z,2.53
2019-02-09T09:27:22.374Z,2.80
2019-02-09T09:29:52.896Z,3.33
2019-02-09T09:32:28.516Z,3.40
2019-02-09T09:34:55.308Z,5.20
2019-02-09T09:37:25.667Z,4.00
2019-02-09T09:39:55.895Z,3.40
2019-02-09T09:42:26.160Z,4.30
2019-02-09T09:44:56.461Z,4.50
2019-02-09T09:47:26.717Z,4.00
2019-02-09T09:49:56.974Z,3.70
2019-02-09T09:52:27.240Z,3.83
2019-02-09T09:54:57.484Z,4.00
2019-02-09T09:57:30.905Z,4.07
2019-02-09T10:00:01.548Z,4.87
2019-02-09T10:02:36.576Z,5.10
2019-02-09T10:05:04.113Z,3.60
2019-02-09T10:07:35.344Z,4.63
2019-02-09T10:10:09.858Z,4.50
2019-02-09T10:12:40.170Z,4.93
2019-02-09T10:15:12.874Z,4.80
2019-02-09T10:17:43.202Z,4.08
2019-02-09T10:20:16.656Z,4.00
2019-02-09T10:22:46.919Z,3.62
2019-02-09T10:25:17.392Z,4.57
2019-02-09T10:27:47.958Z,4.30
2019-02-09T10:30:24.412Z,3.30
2019-02-09T10:32:54.804Z,4.33
2019-02-09T10:35:25.263Z,5.07
2019-02-09T10:37:55.758Z,4.10
2019-02-09T10:40:29.188Z,3.97
2019-02-09T10:43:00.202Z,4.77
2019-02-09T10:45:33.057Z,3.87
2019-02-09T10:48:03.504Z,4.47
2019-02-09T10:50:40.567Z,3.83
2019-02-09T10:53:11.229Z,5.10
2019-02-09T10:55:41.612Z,3.57
2019-02-09T10:58:12.066Z,4.47
2019-02-09T11:00:53.859Z,3.73
2019-02-09T11:03:24.433Z,4.08
2019-02-09T11:05:54.903Z,4.10
2019-02-09T11:08:26.361Z,3.23
2019-02-09T11:10:57.974Z,2.60
2019-02-09T11:13:28.701Z,3.77
2019-02-09T11:15:59.651Z,3.73
2019-02-09T11:18:31.594Z,3.13
2019-02-09T11:21:06.173Z,3.70
2019-02-09T11:23:36.597Z,3.40
2019-02-09T11:26:07.560Z,4.73
2019-02-09T11:28:37.947Z,4.30
2019-02-09T11:31:08.750Z,2.53
2019-02-09T11:33:38.844Z,4.03
2019-02-09T11:36:09.096Z,5.00
2019-02-09T11:38:39.292Z,2.67
2019-02-09T11:41:09.639Z,4.57
2019-02-09T11:43:39.951Z,3.90
2019-02-09T11:46:10.167Z,3.50
2019-02-09T11:48:40.468Z,3.67
2019-02-09T11:51:10.705Z,3.47
2019-02-09T11:53:40.918Z,3.67
2019-02-09T11:56:11.170Z,4.45
2019-02-09T11:58:41.388Z,3.40
2019-02-09T12:01:11.622Z,3.40
2019-02-09T12:04:02.691Z,3.30
2019-02-09T12:06:34.079Z,3.03
2019-02-09T12:09:06.671Z,2.70
2019-02-09T12:11:37.102Z,2.63
2019-02-09T12:14:07.479Z,3.87
2019-02-09T12:16:37.903Z,2.57
2019-02-09T12:19:13.878Z,2.87
2019-02-09T12:21:47.271Z,3.10
2019-02-09T12:24:18.360Z,3.00
2019-02-09T12:26:48.737Z,2.67
2019-02-09T12:29:19.042Z,3.07
2019-02-09T12:31:49.420Z,4.27
2019-02-09T12:34:19.802Z,3.43
2019-02-09T12:36:50.050Z,2.33
2019-02-09T12:39:21.910Z,2.73
2019-02-09T12:41:52.181Z,3.43
2019-02-09T12:44:22.478Z,2.83
2019-02-09T12:46:52.657Z,2.97
2019-02-09T12:49:22.978Z,3.33
2019-02-09T12:51:53.311Z,2.87
2019-02-09T12:54:23.543Z,3.73
2019-02-09T12:56:54.027Z,2.75
2019-02-09T12:59:24.521Z,2.80
2019-02-09T13:01:54.785Z,3.40
2019-02-09T13:04:25.163Z,2.80
2019-02-09T13:06:55.486Z,3.77
2019-02-09T13:09:25.801Z,3.27
2019-02-09T13:11:56.181Z,3.60
2019-02-09T13:14:26.451Z,3.33
2019-02-09T13:16:56.672Z,3.35
2019-02-09T13:19:26.944Z,3.50
2019-02-09T13:21:57.153Z,2.60
2019-02-09T13:24:27.323Z,2.67
2019-02-09T13:26:57.533Z,3.70
2019-02-09T13:29:27.867Z,3.30
2019-02-09T13:31:59.617Z,3.80
2019-02-09T13:34:29.985Z,2.43
2019-02-09T13:37:00.272Z,3.43
2019-02-09T13:39:30.477Z,2.77
2019-02-09T13:42:00.821Z,2.67
2019-02-09T13:44:31.354Z,3.30
2019-02-09T13:47:01.649Z,3.03
2019-02-09T13:49:31.940Z,4.33
2019-02-09T13:52:02.189Z,2.57
2019-02-09T13:54:33.556Z,3.90
2019-02-09T13:57:05.437Z,3.43
2019-02-09T13:59:39.965Z,3.03
2019-02-09T14:02:10.188Z,3.90
2019-02-09T14:04:40.439Z,3.50
2019-02-09T14:07:10.712Z,3.58
2019-02-09T14:09:40.966Z,4.03
2019-02-09T14:12:11.339Z,2.90
2019-02-09T14:14:41.622Z,3.30
2019-02-09T14:17:11.977Z,3.63
2019-02-09T14:19:42.748Z,2.97
2019-02-09T14:22:12.961Z,4.30
2019-02-09T14:24:43.242Z,2.67
2019-02-09T14:27:13.561Z,3.22
2019-02-09T14:29:43.795Z,2.23
2019-02-09T14:32:13.966Z,3.47
2019-02-09T14:34:44.192Z,3.37
2019-02-09T14:37:14.445Z,3.22
2019-02-09T14:39:46.768Z,3.27
2019-02-09T14:42:19.016Z,3.70
2019-02-09T14:44:49.375Z,3.03
2019-02-09T14:47:19.751Z,3.63
2019-02-09T14:49:50.156Z,2.70
2019-02-09T14:52:22.162Z,3.70
2019-02-09T14:54:52.377Z,3.30
2019-02-09T14:57:22.692Z,4.00
2019-02-09T14:59:52.946Z,4.03
2019-02-09T15:02:23.226Z,4.07
2019-02-09T15:04:53.441Z,4.40
2019-02-09T15:07:23.767Z,3.05
2019-02-09T15:09:54.105Z,2.80
2019-02-09T15:12:24.263Z,2.83
2019-02-09T15:14:54.440Z,3.60
2019-02-09T15:17:24.795Z,3.10
2019-02-09T15:19:55.013Z,4.13
2019-02-09T15:22:25.266Z,3.03
2019-02-09T15:24:55.439Z,3.43
2019-02-09T15:28:01.365Z,3.17
2019-02-09T15:30:32.291Z,3.17
2019-02-09T15:33:02.650Z,3.43
2019-02-09T15:35:32.978Z,3.87
2019-02-09T15:38:03.239Z,2.77
2019-02-09T15:40:33.395Z,3.70
2019-02-09T15:43:03.769Z,3.87
2019-02-09T15:45:34.062Z,3.57
2019-02-09T15:48:04.429Z,2.93
2019-02-09T15:50:34.717Z,3.43
2019-02-09T15:53:05.219Z,3.03
2019-02-09T15:55:35.485Z,4.63
2019-02-09T15:58:07.538Z,2.90
2019-02-09T16:00:37.919Z,4.60
2019-02-09T16:03:08.187Z,3.63
2019-02-09T16:05:38.469Z,3.47
2019-02-09T16:08:08.899Z,3.60
2019-02-09T16:10:39.182Z,3.83
2019-02-09T16:13:09.412Z,3.60
2019-02-09T16:15:39.769Z,4.27
2019-02-09T16:18:10.060Z,3.73
2019-02-09T16:20:40.670Z,3.83
2019-02-09T16:23:10.904Z,4.40
2019-02-09T16:25:41.218Z,3.70
2019-02-09T16:28:11.585Z,3.92
2019-02-09T16:30:41.962Z,3.90
2019-02-09T16:33:12.207Z,4.53
2019-02-09T16:35:42.483Z,3.23
2019-02-09T16:38:12.791Z,3.58
2019-02-09T16:40:43.031Z,4.47
2019-02-09T16:43:13.841Z,3.55
2019-02-09T16:45:44.141Z,4.27
2019-02-09T16:48:14.387Z,2.83
2019-02-09T16:50:44.612Z,4.83
2019-02-09T16:53:14.864Z,3.90
2019-02-09T16:55:45.209Z,4.20
2019-02-09T16:58:15.514Z,4.37
2019-02-09T17:00:45.997Z,4.67
2019-02-09T17:03:16.193Z,3.92
2019-02-09T17:05:46.438Z,3.63
2019-02-09T17:08:16.790Z,3.12
2019-02-09T17:10:47.027Z,3.53
2019-02-09T17:13:17.558Z,2.90
2019-02-09T17:15:47.956Z,2.60
2019-02-09T17:18:18.191Z,2.90
2019-02-09T17:20:48.367Z,3.17
2019-02-09T17:23:20.462Z,3.77
2019-02-09T17:25:52.131Z,2.73
2019-02-09T17:28:22.699Z,3.43
2019-02-09T17:30:53.465Z,3.20
2019-02-09T17:33:24.054Z,3.03
2019-02-09T17:35:54.564Z,3.57
2019-02-09T17:38:25.134Z,4.53
2019-02-09T17:40:55.655Z,3.30
2019-02-09T17:43:26.262Z,4.00
2019-02-09T17:46:06.707Z,3.80
2019-02-09T17:48:41.934Z,3.63
2019-02-09T17:51:12.512Z,3.25
2019-02-09T17:56:22.161Z,3.30
2019-02-09T17:58:52.672Z,3.30
2019-02-09T18:01:23.285Z,2.92
2019-02-09T18:03:53.745Z,3.10
2019-02-09T18:06:24.501Z,4.12
2019-02-09T18:08:54.984Z,3.80
2019-02-09T18:11:25.562Z,3.67
2019-02-09T18:13:56.058Z,3.47
2019-02-09T18:16:26.680Z,3.20
2019-02-09T18:18:57.442Z,3.77
2019-02-09T18:21:28.651Z,4.00
2019-02-09T18:23:59.315Z,3.77
2019-02-09T18:26:29.775Z,3.77
2019-02-09T18:29:00.618Z,4.10
2019-02-09T18:31:31.228Z,4.00
2019-02-09T18:34:01.738Z,3.87
2019-02-09T18:36:32.365Z,3.93
2019-02-09T18:39:04.051Z,3.53
2019-02-09T18:41:34.466Z,4.23
2019-02-09T18:44:04.957Z,3.67
2019-02-09T18:46:35.495Z,3.40
2019-02-09T18:49:07.264Z,4.15
2019-02-09T18:51:37.966Z,3.83
2019-02-09T18:54:08.414Z,4.62
2019-02-09T18:56:38.875Z,4.30
2019-02-09T18:59:09.476Z,3.80
2019-02-09T19:01:40.043Z,4.10
2019-02-09T19:04:10.469Z,4.10
2019-02-09T19:06:41.008Z,3.62
2019-02-09T19:09:12.135Z,3.95
2019-02-09T19:11:42.536Z,4.00
2019-02-09T19:14:13.166Z,3.60
2019-02-09T19:16:43.713Z,4.30
2019-02-09T19:19:14.238Z,4.17
2019-02-09T19:21:46.520Z,4.93
2019-02-09T19:24:17.191Z,4.17
2019-02-09T19:26:47.841Z,3.53
2019-02-09T19:29:18.525Z,3.80
2019-02-09T19:31:49.217Z,3.93
2019-02-09T19:34:19.596Z,3.75
2019-02-09T19:36:49.751Z,3.10
2019-02-09T19:39:20.002Z,4.03
2019-02-09T19:41:50.245Z,3.80
2019-02-09T19:44:20.510Z,3.33
2019-02-09T19:46:50.789Z,3.43
2019-02-09T19:49:20.999Z,3.50
2019-02-09T19:51:51.272Z,3.53
2019-02-09T19:54:21.461Z,4.40
2019-02-09T19:56:51.680Z,3.07
2019-02-09T19:59:21.937Z,4.00
2019-02-09T20:01:52.210Z,4.70
2019-02-09T20:04:22.514Z,3.95
2019-02-09T20:06:52.919Z,3.23
2019-02-09T20:09:23.135Z,3.20
2019-02-09T20:11:53.400Z,3.97
2019-02-09T20:14:23.636Z,4.23
2019-02-09T20:16:53.733Z,3.33
2019-02-09T20:19:26.998Z,4.90
2019-02-09T20:21:57.155Z,3.30
2019-02-09T20:24:27.419Z,3.97
2019-02-09T20:26:57.684Z,4.80
2019-02-09T20:29:27.921Z,4.23
2019-02-09T20:32:01.599Z,4.07
2019-02-09T20:34:30.853Z,5.00
2019-02-09T20:37:01.326Z,4.30
2019-02-09T20:39:32.007Z,5.00
2019-02-09T20:42:02.624Z,4.60
2019-02-09T20:44:33.541Z,3.77
2019-02-09T20:47:03.965Z,4.57
2019-02-09T20:49:34.546Z,5.27
2019-02-09T20:52:05.108Z,4.67
2019-02-09T20:54:36.008Z,4.20
2019-02-09T20:57:07.029Z,5.17
2019-02-09T20:59:37.531Z,5.73
2019-02-09T21:02:08.307Z,4.90
2019-02-09T21:04:38.907Z,5.63
2019-02-09T21:07:09.571Z,4.77
2019-02-09T21:09:42.017Z,4.50
2019-02-09T21:12:12.680Z,4.53
2019-02-09T21:14:43.134Z,5.00
2019-02-09T21:17:13.975Z,4.50
2019-02-09T21:19:44.445Z,5.63
2019-02-09T21:22:15.047Z,5.07
2019-02-09T21:24:46.376Z,4.70
2019-02-09T21:27:17.147Z,4.78
2019-02-09T21:29:47.839Z,4.07
2019-02-09T21:32:18.392Z,5.10
2019-02-09T21:34:48.935Z,3.97
2019-02-09T21:37:19.633Z,4.37
2019-02-09T21:39:50.362Z,5.17
2019-02-09T21:42:20.901Z,4.60
2019-02-09T21:44:51.368Z,4.87
2019-02-09T21:47:21.863Z,4.03
2019-02-09T21:49:52.050Z,4.67
2019-02-09T21:52:22.351Z,4.87
2019-02-09T21:54:52.595Z,5.07
2019-02-09T21:57:22.909Z,5.00
2019-02-09T21:59:53.036Z,4.43
2019-02-09T22:02:23.375Z,5.03
2019-02-09T22:04:53.610Z,5.60
2019-02-09T22:07:23.912Z,5.03
2019-02-09T22:09:54.115Z,5.80
2019-02-09T22:12:24.506Z,5.10
2019-02-09T22:14:54.914Z,4.78
2019-02-09T22:17:25.374Z,5.73
2019-02-09T22:19:55.629Z,5.40
2019-02-09T22:22:25.885Z,5.20
2019-02-09T22:24:56.337Z,5.50
2019-02-09T22:27:26.590Z,5.20
2019-02-09T22:29:56.717Z,4.67
2019-02-09T22:32:26.962Z,5.93
2019-02-09T22:34:57.146Z,4.70
2019-02-09T22:37:27.445Z,4.73
2019-02-09T22:39:57.793Z,4.40
2019-02-09T22:42:28.373Z,4.33
2019-02-09T22:44:58.601Z,4.00
2019-02-09T22:47:28.805Z,4.70
2019-02-09T22:49:59.062Z,4.87
2019-02-09T22:52:29.197Z,5.30
2019-02-09T22:54:59.412Z,3.90
2019-02-09T22:57:29.782Z,4.53
2019-02-09T23:00:00.197Z,4.47
2019-02-09T23:02:30.412Z,5.00
2019-02-09T23:05:59.025Z,4.00
2019-02-09T23:08:29.254Z,5.73
2019-02-09T23:10:59.437Z,5.50
2019-02-09T23:13:29.770Z,4.30
2019-02-09T23:15:59.947Z,5.33
2019-02-09T23:18:30.187Z,4.97
2019-02-09T23:21:00.397Z,5.13
2019-02-09T23:23:31.098Z,4.30
2019-02-09T23:26:01.455Z,5.00
2019-02-09T23:28:31.701Z,4.47
2019-02-09T23:31:01.826Z,4.97
2019-02-09T23:33:32.027Z,5.15
2019-02-09T23:36:02.313Z,4.53
2019-02-09T23:38:32.589Z,4.00
2019-02-09T23:41:02.810Z,5.13
2019-02-09T23:43:32.971Z,4.47
2019-02-09T23:46:03.220Z,4.80
2019-02-09T23:48:33.345Z,3.90
2019-02-09T23:51:03.583Z,4.40
2019-02-09T23:53:33.750Z,4.93
2019-02-09T23:56:03.967Z,5.03
2019-02-09T23:58:34.162Z,4.00
